createdAt,value
2022-10-28T07:56:37.929Z,19.09
2022-10-28T08:11:39.250Z,19.33
2022-10-28T08:26:40.576Z,19.29
2022-10-28T08:41:41.922Z,19.37
2022-10-28T08:56:47.469Z,19.18
2022-10-28T09:11:48.813Z,19.99
2022-10-28T09:26:50.153Z,20.74
2022-10-28T09:41:51.569Z,21.31
2022-10-28T09:56:52.995Z,21.31
2022-10-28T10:11:54.349Z,21.42
2022-10-28T10:26:55.702Z,20.78
2022-10-28T10:41:57.051Z,23.08
2022-10-28T11:11:59.749Z,23.07
2022-10-28T11:27:01.111Z,22.04
2022-10-28T11:42:02.459Z,22.68
2022-10-28T11:57:03.845Z,22.84
2022-10-28T12:12:05.289Z,23.54
2022-10-28T12:27:06.647Z,23.20
2022-10-28T12:42:07.991Z,22.26
2022-10-28T12:57:09.323Z,24.23
2022-10-28T13:12:10.678Z,23.97
2022-10-28T13:27:12.045Z,22.12
2022-10-28T13:42:13.389Z,21.65
2022-10-28T13:57:14.810Z,22.12
2022-10-28T14:12:19.295Z,21.70
2022-10-28T14:27:20.636Z,21.54
2022-10-28T14:42:22.032Z,21.32
2022-10-28T14:57:23.422Z,21.08
2022-10-28T15:12:26.049Z,21.17
2022-10-28T15:27:27.444Z,21.10
2022-10-28T15:42:28.831Z,20.45
2022-10-28T15:57:30.421Z,20.17
2022-10-28T16:12:31.811Z,20.60
2022-10-28T16:27:33.207Z,19.94
2022-10-28T16:42:34.534Z,19.48
2022-10-28T16:57:38.560Z,19.72
2022-10-28T17:12:39.906Z,19.35
2022-10-28T17:27:42.167Z,19.45
2022-10-28T17:42:43.527Z,18.70
2022-10-28T17:57:45.605Z,18.93
2022-10-28T18:12:46.993Z,19.35
2022-10-28T18:27:48.391Z,18.62
2022-10-28T18:42:49.792Z,18.60
2022-10-28T18:57:51.151Z,18.71
2022-10-28T19:12:53.209Z,19.16
2022-10-28T19:27:54.994Z,18.75
2022-10-28T19:42:57.704Z,18.48
2022-10-28T19:57:59.372Z,18.96
2022-10-28T20:13:03.365Z,18.79
2022-10-28T20:28:04.908Z,18.37
2022-10-28T20:43:06.257Z,17.81
2022-10-28T20:58:09.813Z,18.04
2022-10-28T21:13:11.176Z,18.13
2022-10-28T21:28:12.577Z,17.50
2022-10-28T21:43:16.418Z,17.03
2022-10-28T21:58:17.786Z,17.16
2022-10-28T22:13:19.133Z,17.69
2022-10-28T22:28:20.477Z,18.01
2022-10-28T22:43:21.846Z,17.59
2022-10-28T22:58:23.465Z,17.05
2022-10-28T23:13:25.385Z,16.61
2022-10-28T23:28:28.191Z,16.49
2022-10-28T23:43:30.120Z,16.65
2022-10-28T23:58:31.873Z,16.42
